Terminal Aerodrome Forecast
Issued by NWS

Home | Current Version | Previous Version | Text Only | Print | Product List | Glossary On
Versions: 1 2 3 4 5 6 7 8 9 10 11 12 13 14 15
000
FTAK31 PANC 301121
TAFADQ
TAF
PADQ 301121Z 3012/3112 29005KT P6SM BKN120
     FM301400 08008KT P6SM VCSH SCT060 BKN120
     FM301500 07018G25KT 4SM -SN OVC020
     FM301800 07025G35KT 2SM -RASN OVC008
     FM302000 06030G40KT 2SM RA BR SCT008 OVC012
     FM310300 05018G28KT 2SM -RA BR BKN005 OVC012
     FM310700 06009KT 2SM -RA BR OVC005=

USA.gov is the U.S. government's official web portal to all federal, state and local government web resources and services.